sensor_id;sensor_type;location;lat;lon;timestamp;temperature;humidity
29431;DHT22;16404;49.902;10.074;2023-05-07T00:00:58;18.60;50.60
29431;DHT22;16404;49.902;10.074;2023-05-07T00:03:43;18.50;50.00
29431;DHT22;16404;49.902;10.074;2023-05-07T00:06:28;18.50;49.90
29431;DHT22;16404;49.902;10.074;2023-05-07T00:09:13;18.50;50.10
29431;DHT22;16404;49.902;10.074;2023-05-07T00:11:58;18.50;50.30
29431;DHT22;16404;49.902;10.074;2023-05-07T00:14:43;18.50;50.00
29431;DHT22;16404;49.902;10.074;2023-05-07T00:17:27;18.50;49.60
29431;DHT22;16404;49.902;10.074;2023-05-07T00:20:12;18.50;50.10
29431;DHT22;16404;49.902;10.074;2023-05-07T00:22:56;18.50;50.50
29431;DHT22;16404;49.902;10.074;2023-05-07T00:25:41;18.50;50.80
29431;DHT22;16404;49.902;10.074;2023-05-07T00:28:26;18.50;50.80
29431;DHT22;16404;49.902;10.074;2023-05-07T00:31:10;18.50;51.40
29431;DHT22;16404;49.902;10.074;2023-05-07T00:33:55;18.50;51.80
29431;DHT22;16404;49.902;10.074;2023-05-07T00:36:40;18.50;52.10
29431;DHT22;16404;49.902;10.074;2023-05-07T00:39:24;18.50;52.20
29431;DHT22;16404;49.902;10.074;2023-05-07T00:42:09;18.50;52.30
29431;DHT22;16404;49.902;10.074;2023-05-07T00:44:54;18.50;51.90
29431;DHT22;16404;49.902;10.074;2023-05-07T00:47:40;18.50;52.30
29431;DHT22;16404;49.902;10.074;2023-05-07T00:50:26;18.50;52.10
29431;DHT22;16404;49.902;10.074;2023-05-07T00:53:11;18.50;51.80
29431;DHT22;16404;49.902;10.074;2023-05-07T00:55:56;18.50;52.00
29431;DHT22;16404;49.902;10.074;2023-05-07T00:58:41;18.50;52.20
29431;DHT22;16404;49.902;10.074;2023-05-07T01:01:25;18.60;52.00
29431;DHT22;16404;49.902;10.074;2023-05-07T01:04:10;18.50;51.80
29431;DHT22;16404;49.902;10.074;2023-05-07T01:06:56;18.50;52.00
29431;DHT22;16404;49.902;10.074;2023-05-07T01:09:41;18.50;52.50
29431;DHT22;16404;49.902;10.074;2023-05-07T01:12:26;18.50;52.10
29431;DHT22;16404;49.902;10.074;2023-05-07T01:15:11;18.40;52.60
29431;DHT22;16404;49.902;10.074;2023-05-07T01:17:56;18.40;52.60
29431;DHT22;16404;49.902;10.074;2023-05-07T01:20:47;18.30;52.50
29431;DHT22;16404;49.902;10.074;2023-05-07T01:23:33;18.30;53.00
29431;DHT22;16404;49.902;10.074;2023-05-07T01:26:19;18.30;53.40
29431;DHT22;16404;49.902;10.074;2023-05-07T01:29:04;18.30;53.20
29431;DHT22;16404;49.902;10.074;2023-05-07T01:31:50;18.20;53.50
29431;DHT22;16404;49.902;10.074;2023-05-07T01:34:36;18.20;53.70
29431;DHT22;16404;49.902;10.074;2023-05-07T01:37:22;18.20;53.10
29431;DHT22;16404;49.902;10.074;2023-05-07T01:40:07;18.10;53.30
29431;DHT22;16404;49.902;10.074;2023-05-07T01:42:52;18.10;53.60
29431;DHT22;16404;49.902;10.074;2023-05-07T01:45:39;18.00;53.60
29431;DHT22;16404;49.902;10.074;2023-05-07T01:48:24;18.00;53.20
29431;DHT22;16404;49.902;10.074;2023-05-07T01:51:09;18.00;52.80
29431;DHT22;16404;49.902;10.074;2023-05-07T01:53:54;18.00;52.70
29431;DHT22;16404;49.902;10.074;2023-05-07T01:56:38;18.00;53.30
29431;DHT22;16404;49.902;10.074;2023-05-07T01:59:23;17.90;53.70
29431;DHT22;16404;49.902;10.074;2023-05-07T02:02:08;17.80;54.00
29431;DHT22;16404;49.902;10.074;2023-05-07T02:04:54;17.80;54.50
29431;DHT22;16404;49.902;10.074;2023-05-07T02:07:40;17.80;54.90
29431;DHT22;16404;49.902;10.074;2023-05-07T02:10:25;17.70;55.20
29431;DHT22;16404;49.902;10.074;2023-05-07T02:13:10;17.60;55.60
29431;DHT22;16404;49.902;10.074;2023-05-07T02:15:54;17.60;55.40
29431;DHT22;16404;49.902;10.074;2023-05-07T02:18:40;17.60;55.60
29431;DHT22;16404;49.902;10.074;2023-05-07T02:21:25;17.50;56.10
29431;DHT22;16404;49.902;10.074;2023-05-07T02:24:09;17.40;55.50
29431;DHT22;16404;49.902;10.074;2023-05-07T02:26:54;17.40;55.70
29431;DHT22;16404;49.902;10.074;2023-05-07T02:29:38;17.50;55.80
29431;DHT22;16404;49.902;10.074;2023-05-07T02:32:23;17.50;55.60
29431;DHT22;16404;49.902;10.074;2023-05-07T02:35:08;17.50;55.30
29431;DHT22;16404;49.902;10.074;2023-05-07T02:37:53;17.50;55.20
29431;DHT22;16404;49.902;10.074;2023-05-07T02:40:38;17.50;55.10
29431;DHT22;16404;49.902;10.074;2023-05-07T02:43:25;17.40;54.80
29431;DHT22;16404;49.902;10.074;2023-05-07T02:46:09;17.30;54.90
29431;DHT22;16404;49.902;10.074;2023-05-07T02:48:58;17.20;55.10
29431;DHT22;16404;49.902;10.074;2023-05-07T02:51:42;17.20;55.70
29431;DHT22;16404;49.902;10.074;2023-05-07T02:54:33;17.20;55.60
29431;DHT22;16404;49.902;10.074;2023-05-07T02:57:18;17.20;55.90
29431;DHT22;16404;49.902;10.074;2023-05-07T03:00:17;17.20;56.10
29431;DHT22;16404;49.902;10.074;2023-05-07T03:03:28;17.10;55.40
29431;DHT22;16404;49.902;10.074;2023-05-07T03:06:13;17.10;55.90
29431;DHT22;16404;49.902;10.074;2023-05-07T03:08:57;17.10;55.90
29431;DHT22;16404;49.902;10.074;2023-05-07T03:11:42;17.10;56.20
29431;DHT22;16404;49.902;10.074;2023-05-07T03:14:26;17.10;55.80
29431;DHT22;16404;49.902;10.074;2023-05-07T03:17:11;17.00;55.50
29431;DHT22;16404;49.902;10.074;2023-05-07T03:19:55;17.00;55.80
29431;DHT22;16404;49.902;10.074;2023-05-07T03:22:40;16.90;56.10
29431;DHT22;16404;49.902;10.074;2023-05-07T03:25:25;16.90;56.10
29431;DHT22;16404;49.902;10.074;2023-05-07T03:28:09;16.90;56.40
29431;DHT22;16404;49.902;10.074;2023-05-07T03:31:00;16.90;57.20
29431;DHT22;16404;49.902;10.074;2023-05-07T03:33:56;16.90;57.60
29431;DHT22;16404;49.902;10.074;2023-05-07T03:36:42;16.90;57.90
29431;DHT22;16404;49.902;10.074;2023-05-07T03:39:29;16.90;57.70
29431;DHT22;16404;49.902;10.074;2023-05-07T03:42:14;16.90;57.90
29431;DHT22;16404;49.902;10.074;2023-05-07T03:44:59;16.80;58.20
29431;DHT22;16404;49.902;10.074;2023-05-07T03:47:44;16.70;58.30
29431;DHT22;16404;49.902;10.074;2023-05-07T03:50:33;16.70;58.50
29431;DHT22;16404;49.902;10.074;2023-05-07T03:53:17;16.70;58.50
29431;DHT22;16404;49.902;10.074;2023-05-07T03:56:02;16.80;58.60
29431;DHT22;16404;49.902;10.074;2023-05-07T03:58:52;16.70;58.60
29431;DHT22;16404;49.902;10.074;2023-05-07T04:01:37;16.70;58.20
29431;DHT22;16404;49.902;10.074;2023-05-07T04:04:22;16.80;58.40
29431;DHT22;16404;49.902;10.074;2023-05-07T04:07:06;16.80;58.50
29431;DHT22;16404;49.902;10.074;2023-05-07T04:09:56;16.80;58.40
29431;DHT22;16404;49.902;10.074;2023-05-07T04:12:42;16.80;58.60
29431;DHT22;16404;49.902;10.074;2023-05-07T04:15:27;16.90;58.60
29431;DHT22;16404;49.902;10.074;2023-05-07T04:18:13;16.80;58.20
29431;DHT22;16404;49.902;10.074;2023-05-07T04:20:59;16.80;58.30
29431;DHT22;16404;49.902;10.074;2023-05-07T04:23:45;16.80;58.40
29431;DHT22;16404;49.902;10.074;2023-05-07T04:26:31;16.80;58.40
29431;DHT22;16404;49.902;10.074;2023-05-07T04:29:16;16.80;58.60
29431;DHT22;16404;49.902;10.074;2023-05-07T04:32:00;16.90;58.20
29431;DHT22;16404;49.902;10.074;2023-05-07T04:34:45;16.90;57.70
29431;DHT22;16404;49.902;10.074;2023-05-07T04:37:32;16.90;57.50
29431;DHT22;16404;49.902;10.074;2023-05-07T04:40:17;16.90;57.30
29431;DHT22;16404;49.902;10.074;2023-05-07T04:43:02;16.90;58.00
29431;DHT22;16404;49.902;10.074;2023-05-07T04:45:50;17.00;58.80
29431;DHT22;16404;49.902;10.074;2023-05-07T04:48:35;17.00;58.80
29431;DHT22;16404;49.902;10.074;2023-05-07T04:51:23;17.00;58.90
29431;DHT22;16404;49.902;10.074;2023-05-07T04:54:07;17.00;59.00
29431;DHT22;16404;49.902;10.074;2023-05-07T04:56:52;17.10;58.80
29431;DHT22;16404;49.902;10.074;2023-05-07T04:59:36;17.20;58.80
29431;DHT22;16404;49.902;10.074;2023-05-07T05:02:21;17.20;58.80
29431;DHT22;16404;49.902;10.074;2023-05-07T05:05:07;17.20;58.60
29431;DHT22;16404;49.902;10.074;2023-05-07T05:07:51;17.30;58.60
29431;DHT22;16404;49.902;10.074;2023-05-07T05:10:36;17.40;58.30
29431;DHT22;16404;49.902;10.074;2023-05-07T05:13:20;17.40;58.30
29431;DHT22;16404;49.902;10.074;2023-05-07T05:16:06;17.40;58.90
29431;DHT22;16404;49.902;10.074;2023-05-07T05:18:50;17.50;58.90
29431;DHT22;16404;49.902;10.074;2023-05-07T05:21:37;17.50;58.80
29431;DHT22;16404;49.902;10.074;2023-05-07T05:24:25;17.60;58.60
29431;DHT22;16404;49.902;10.074;2023-05-07T05:27:09;17.70;58.50
29431;DHT22;16404;49.902;10.074;2023-05-07T05:29:54;17.70;58.60
29431;DHT22;16404;49.902;10.074;2023-05-07T05:32:38;17.70;58.50
29431;DHT22;16404;49.902;10.074;2023-05-07T05:35:24;17.80;58.50
29431;DHT22;16404;49.902;10.074;2023-05-07T05:38:08;17.90;58.40
29431;DHT22;16404;49.902;10.074;2023-05-07T05:40:53;18.00;58.10
29431;DHT22;16404;49.902;10.074;2023-05-07T05:43:38;18.10;58.20
29431;DHT22;16404;49.902;10.074;2023-05-07T05:46:23;18.20;58.40
29431;DHT22;16404;49.902;10.074;2023-05-07T05:49:09;18.20;58.30
29431;DHT22;16404;49.902;10.074;2023-05-07T05:51:54;18.30;57.90
29431;DHT22;16404;49.902;10.074;2023-05-07T05:54:42;18.30;57.70
29431;DHT22;16404;49.902;10.074;2023-05-07T05:57:26;18.30;57.60
29431;DHT22;16404;49.902;10.074;2023-05-07T06:00:11;18.30;57.50
29431;DHT22;16404;49.902;10.074;2023-05-07T06:03:05;18.20;57.30
29431;DHT22;16404;49.902;10.074;2023-05-07T06:05:50;18.20;57.40
29431;DHT22;16404;49.902;10.074;2023-05-07T06:08:35;18.20;57.60
29431;DHT22;16404;49.902;10.074;2023-05-07T06:11:21;18.20;57.60
29431;DHT22;16404;49.902;10.074;2023-05-07T06:14:06;18.30;57.70
29431;DHT22;16404;49.902;10.074;2023-05-07T06:16:51;18.30;57.70
29431;DHT22;16404;49.902;10.074;2023-05-07T06:19:36;18.30;57.60
29431;DHT22;16404;49.902;10.074;2023-05-07T06:22:21;18.30;57.60
29431;DHT22;16404;49.902;10.074;2023-05-07T06:25:06;18.30;57.60
29431;DHT22;16404;49.902;10.074;2023-05-07T06:27:51;18.40;57.60
29431;DHT22;16404;49.902;10.074;2023-05-07T06:30:36;18.40;57.50
29431;DHT22;16404;49.902;10.074;2023-05-07T06:33:21;18.50;57.50
29431;DHT22;16404;49.902;10.074;2023-05-07T06:36:06;18.60;57.30
29431;DHT22;16404;49.902;10.074;2023-05-07T06:38:51;18.70;57.20
29431;DHT22;16404;49.902;10.074;2023-05-07T06:41:35;18.70;56.90
29431;DHT22;16404;49.902;10.074;2023-05-07T06:44:26;18.80;56.70
29431;DHT22;16404;49.902;10.074;2023-05-07T06:47:31;18.90;56.60
29431;DHT22;16404;49.902;10.074;2023-05-07T06:50:16;19.10;56.50
29431;DHT22;16404;49.902;10.074;2023-05-07T06:53:02;19.10;56.20
29431;DHT22;16404;49.902;10.074;2023-05-07T06:55:47;19.20;56.00
29431;DHT22;16404;49.902;10.074;2023-05-07T06:58:37;19.30;55.90
29431;DHT22;16404;49.902;10.074;2023-05-07T07:01:22;19.40;55.80
29431;DHT22;16404;49.902;10.074;2023-05-07T07:04:07;19.50;55.60
29431;DHT22;16404;49.902;10.074;2023-05-07T07:06:54;19.60;55.30
29431;DHT22;16404;49.902;10.074;2023-05-07T07:09:40;19.70;55.20
29431;DHT22;16404;49.902;10.074;2023-05-07T07:12:26;19.80;54.80
29431;DHT22;16404;49.902;10.074;2023-05-07T07:15:16;19.90;54.70
29431;DHT22;16404;49.902;10.074;2023-05-07T07:18:01;20.00;54.70
29431;DHT22;16404;49.902;10.074;2023-05-07T07:20:45;20.10;54.50
29431;DHT22;16404;49.902;10.074;2023-05-07T07:23:31;20.20;54.30
29431;DHT22;16404;49.902;10.074;2023-05-07T07:26:16;20.30;53.90
29431;DHT22;16404;49.902;10.074;2023-05-07T07:29:01;20.50;53.50
29431;DHT22;16404;49.902;10.074;2023-05-07T07:31:47;20.70;53.30
29431;DHT22;16404;49.902;10.074;2023-05-07T07:34:32;20.80;53.20
29431;DHT22;16404;49.902;10.074;2023-05-07T07:37:19;20.90;52.90
29431;DHT22;16404;49.902;10.074;2023-05-07T07:40:03;21.10;52.70
29431;DHT22;16404;49.902;10.074;2023-05-07T07:42:48;21.30;52.50
29431;DHT22;16404;49.902;10.074;2023-05-07T07:45:32;21.40;52.00
29431;DHT22;16404;49.902;10.074;2023-05-07T07:48:19;21.70;51.80
29431;DHT22;16404;49.902;10.074;2023-05-07T07:51:04;21.80;51.20
29431;DHT22;16404;49.902;10.074;2023-05-07T07:53:49;22.00;51.20
29431;DHT22;16404;49.902;10.074;2023-05-07T07:56:33;22.20;50.60
29431;DHT22;16404;49.902;10.074;2023-05-07T07:59:18;22.40;50.40
29431;DHT22;16404;49.902;10.074;2023-05-07T08:02:06;22.50;49.80
29431;DHT22;16404;49.902;10.074;2023-05-07T08:04:51;22.60;49.30
29431;DHT22;16404;49.902;10.074;2023-05-07T08:07:36;22.70;49.00
29431;DHT22;16404;49.902;10.074;2023-05-07T08:10:21;22.70;49.00
29431;DHT22;16404;49.902;10.074;2023-05-07T08:13:09;22.70;48.60
29431;DHT22;16404;49.902;10.074;2023-05-07T08:15:56;22.70;48.50
29431;DHT22;16404;49.902;10.074;2023-05-07T08:18:40;22.70;48.50
29431;DHT22;16404;49.902;10.074;2023-05-07T08:21:26;22.80;48.40
29431;DHT22;16404;49.902;10.074;2023-05-07T08:24:11;22.70;48.30
29431;DHT22;16404;49.902;10.074;2023-05-07T08:26:55;22.90;48.50
29431;DHT22;16404;49.902;10.074;2023-05-07T08:29:40;22.80;48.20
29431;DHT22;16404;49.902;10.074;2023-05-07T08:32:24;22.90;48.30
29431;DHT22;16404;49.902;10.074;2023-05-07T08:35:10;22.90;48.30
29431;DHT22;16404;49.902;10.074;2023-05-07T08:37:54;23.00;48.50
29431;DHT22;16404;49.902;10.074;2023-05-07T08:40:40;22.90;48.00
29431;DHT22;16404;49.902;10.074;2023-05-07T08:43:36;22.90;48.00
29431;DHT22;16404;49.902;10.074;2023-05-07T08:46:22;22.90;48.00
29431;DHT22;16404;49.902;10.074;2023-05-07T08:49:11;23.00;47.90
29431;DHT22;16404;49.902;10.074;2023-05-07T08:51:55;23.00;48.00
29431;DHT22;16404;49.902;10.074;2023-05-07T08:54:40;23.10;47.90
29431;DHT22;16404;49.902;10.074;2023-05-07T08:57:27;23.20;47.80
29431;DHT22;16404;49.902;10.074;2023-05-07T09:00:12;23.30;47.50
29431;DHT22;16404;49.902;10.074;2023-05-07T09:02:58;23.20;47.40
29431;DHT22;16404;49.902;10.074;2023-05-07T09:05:43;23.20;47.30
29431;DHT22;16404;49.902;10.074;2023-05-07T09:08:29;23.30;47.30
29431;DHT22;16404;49.902;10.074;2023-05-07T09:11:23;23.30;47.20
29431;DHT22;16404;49.902;10.074;2023-05-07T09:14:09;23.30;47.60
29431;DHT22;16404;49.902;10.074;2023-05-07T09:16:57;23.40;47.00
29431;DHT22;16404;49.902;10.074;2023-05-07T09:19:44;23.40;47.00
29431;DHT22;16404;49.902;10.074;2023-05-07T09:22:35;23.50;46.90
29431;DHT22;16404;49.902;10.074;2023-05-07T09:25:31;23.60;46.80
29431;DHT22;16404;49.902;10.074;2023-05-07T09:28:19;23.60;46.50
29431;DHT22;16404;49.902;10.074;2023-05-07T09:31:04;23.80;46.50
29431;DHT22;16404;49.902;10.074;2023-05-07T09:33:49;24.00;46.30
29431;DHT22;16404;49.902;10.074;2023-05-07T09:36:35;24.20;46.60
29431;DHT22;16404;49.902;10.074;2023-05-07T09:39:23;24.50;46.10
29431;DHT22;16404;49.902;10.074;2023-05-07T09:42:07;24.70;45.40
29431;DHT22;16404;49.902;10.074;2023-05-07T09:44:54;24.90;45.40
29431;DHT22;16404;49.902;10.074;2023-05-07T09:47:42;25.10;44.60
29431;DHT22;16404;49.902;10.074;2023-05-07T09:50:49;25.30;44.20
29431;DHT22;16404;49.902;10.074;2023-05-07T09:53:35;25.40;44.10
29431;DHT22;16404;49.902;10.074;2023-05-07T09:56:22;25.60;44.10
29431;DHT22;16404;49.902;10.074;2023-05-07T09:59:08;25.70;43.60
29431;DHT22;16404;49.902;10.074;2023-05-07T10:01:57;25.80;43.10
29431;DHT22;16404;49.902;10.074;2023-05-07T10:04:43;25.90;43.30
29431;DHT22;16404;49.902;10.074;2023-05-07T10:07:28;26.00;42.50
29431;DHT22;16404;49.902;10.074;2023-05-07T10:10:17;26.10;42.30
29431;DHT22;16404;49.902;10.074;2023-05-07T10:13:04;26.10;42.60
29431;DHT22;16404;49.902;10.074;2023-05-07T10:15:56;26.20;42.70
29431;DHT22;16404;49.902;10.074;2023-05-07T10:18:44;26.20;42.20
29431;DHT22;16404;49.902;10.074;2023-05-07T10:21:36;26.30;42.10
29431;DHT22;16404;49.902;10.074;2023-05-07T10:24:26;26.30;42.10
29431;DHT22;16404;49.902;10.074;2023-05-07T10:27:12;26.30;42.20
29431;DHT22;16404;49.902;10.074;2023-05-07T10:30:30;26.30;41.90
29431;DHT22;16404;49.902;10.074;2023-05-07T10:33:08;26.30;41.60
29431;DHT22;16404;49.902;10.074;2023-05-07T10:35:59;26.50;42.10
29431;DHT22;16404;49.902;10.074;2023-05-07T10:38:45;26.50;41.80
29431;DHT22;16404;49.902;10.074;2023-05-07T10:41:30;26.50;41.70
29431;DHT22;16404;49.902;10.074;2023-05-07T10:44:28;26.50;42.00
29431;DHT22;16404;49.902;10.074;2023-05-07T10:47:16;26.50;42.00
29431;DHT22;16404;49.902;10.074;2023-05-07T10:56:24;26.70;42.10
29431;DHT22;16404;49.902;10.074;2023-05-07T11:02:08;26.60;41.60
29431;DHT22;16404;49.902;10.074;2023-05-07T11:05:22;26.60;41.90
29431;DHT22;16404;49.902;10.074;2023-05-07T11:08:55;26.60;41.80
29431;DHT22;16404;49.902;10.074;2023-05-07T11:11:49;26.60;41.50
29431;DHT22;16404;49.902;10.074;2023-05-07T11:15:04;26.60;41.60
29431;DHT22;16404;49.902;10.074;2023-05-07T11:17:58;26.60;41.30
29431;DHT22;16404;49.902;10.074;2023-05-07T11:21:05;26.60;41.60
29431;DHT22;16404;49.902;10.074;2023-05-07T11:24:05;26.70;41.50
29431;DHT22;16404;49.902;10.074;2023-05-07T11:26:58;26.80;41.20
29431;DHT22;16404;49.902;10.074;2023-05-07T11:29:46;26.90;40.90
29431;DHT22;16404;49.902;10.074;2023-05-07T11:32:32;26.90;40.60
29431;DHT22;16404;49.902;10.074;2023-05-07T11:35:18;27.00;40.30
29431;DHT22;16404;49.902;10.074;2023-05-07T11:38:07;27.10;40.50
29431;DHT22;16404;49.902;10.074;2023-05-07T11:43:40;27.00;40.70
29431;DHT22;16404;49.902;10.074;2023-05-07T11:46:37;27.00;40.40
29431;DHT22;16404;49.902;10.074;2023-05-07T11:49:26;27.00;40.40
29431;DHT22;16404;49.902;10.074;2023-05-07T11:52:13;27.00;40.60
29431;DHT22;16404;49.902;10.074;2023-05-07T11:54:58;27.00;40.90
29431;DHT22;16404;49.902;10.074;2023-05-07T11:57:44;27.00;40.60
29431;DHT22;16404;49.902;10.074;2023-05-07T12:00:29;27.00;40.90
29431;DHT22;16404;49.902;10.074;2023-05-07T12:03:13;27.10;41.10
29431;DHT22;16404;49.902;10.074;2023-05-07T12:05:59;27.10;40.90
29431;DHT22;16404;49.902;10.074;2023-05-07T12:08:45;27.20;40.40
29431;DHT22;16404;49.902;10.074;2023-05-07T12:11:30;27.40;40.40
29431;DHT22;16404;49.902;10.074;2023-05-07T12:14:15;27.40;40.20
29431;DHT22;16404;49.902;10.074;2023-05-07T12:17:03;27.50;40.10
29431;DHT22;16404;49.902;10.074;2023-05-07T12:19:47;27.50;39.70
29431;DHT22;16404;49.902;10.074;2023-05-07T12:22:32;27.60;39.90
29431;DHT22;16404;49.902;10.074;2023-05-07T12:25:19;27.60;39.80
29431;DHT22;16404;49.902;10.074;2023-05-07T12:28:04;27.60;39.80
29431;DHT22;16404;49.902;10.074;2023-05-07T12:30:50;27.70;39.80
29431;DHT22;16404;49.902;10.074;2023-05-07T12:33:36;27.70;39.60
29431;DHT22;16404;49.902;10.074;2023-05-07T12:36:21;27.70;39.10
29431;DHT22;16404;49.902;10.074;2023-05-07T12:39:06;27.80;39.30
29431;DHT22;16404;49.902;10.074;2023-05-07T12:41:57;27.80;39.00
29431;DHT22;16404;49.902;10.074;2023-05-07T12:44:46;27.80;38.90
29431;DHT22;16404;49.902;10.074;2023-05-07T12:47:30;27.90;38.60
29431;DHT22;16404;49.902;10.074;2023-05-07T12:50:16;27.90;38.40
29431;DHT22;16404;49.902;10.074;2023-05-07T12:53:03;28.00;38.50
29431;DHT22;16404;49.902;10.074;2023-05-07T12:55:55;28.00;38.10
29431;DHT22;16404;49.902;10.074;2023-05-07T12:58:40;28.10;38.20
29431;DHT22;16404;49.902;10.074;2023-05-07T13:01:28;28.10;38.10
29431;DHT22;16404;49.902;10.074;2023-05-07T13:04:13;28.10;38.20
29431;DHT22;16404;49.902;10.074;2023-05-07T13:06:58;28.10;38.40
29431;DHT22;16404;49.902;10.074;2023-05-07T13:09:42;28.00;38.00
29431;DHT22;16404;49.902;10.074;2023-05-07T13:12:27;28.00;38.10
29431;DHT22;16404;49.902;10.074;2023-05-07T13:15:12;28.00;38.20
29431;DHT22;16404;49.902;10.074;2023-05-07T13:17:56;28.10;38.20
29431;DHT22;16404;49.902;10.074;2023-05-07T13:20:41;28.10;37.80
29431;DHT22;16404;49.902;10.074;2023-05-07T13:23:26;28.10;38.30
29431;DHT22;16404;49.902;10.074;2023-05-07T13:26:11;28.00;38.20
29431;DHT22;16404;49.902;10.074;2023-05-07T13:28:56;28.00;38.20
29431;DHT22;16404;49.902;10.074;2023-05-07T13:31:40;27.90;38.30
29431;DHT22;16404;49.902;10.074;2023-05-07T13:34:28;27.90;38.50
29431;DHT22;16404;49.902;10.074;2023-05-07T13:37:12;27.90;38.50
29431;DHT22;16404;49.902;10.074;2023-05-07T13:39:57;27.90;38.20
29431;DHT22;16404;49.902;10.074;2023-05-07T13:42:41;27.80;38.10
29431;DHT22;16404;49.902;10.074;2023-05-07T13:45:26;27.90;38.40
29431;DHT22;16404;49.902;10.074;2023-05-07T13:48:13;27.90;38.50
29431;DHT22;16404;49.902;10.074;2023-05-07T13:50:58;27.90;38.60
29431;DHT22;16404;49.902;10.074;2023-05-07T13:53:42;28.00;38.60
29431;DHT22;16404;49.902;10.074;2023-05-07T13:56:27;27.90;38.30
29431;DHT22;16404;49.902;10.074;2023-05-07T13:59:12;28.00;38.50
29431;DHT22;16404;49.902;10.074;2023-05-07T14:01:58;28.10;38.60
29431;DHT22;16404;49.902;10.074;2023-05-07T14:04:43;28.20;38.10
29431;DHT22;16404;49.902;10.074;2023-05-07T14:07:27;28.10;37.80
29431;DHT22;16404;49.902;10.074;2023-05-07T14:10:12;28.10;37.90
29431;DHT22;16404;49.902;10.074;2023-05-07T14:12:57;28.20;38.20
29431;DHT22;16404;49.902;10.074;2023-05-07T14:15:41;28.10;38.10
29431;DHT22;16404;49.902;10.074;2023-05-07T14:18:30;28.10;37.90
29431;DHT22;16404;49.902;10.074;2023-05-07T14:21:14;27.90;38.10
29431;DHT22;16404;49.902;10.074;2023-05-07T14:23:59;27.90;38.10
29431;DHT22;16404;49.902;10.074;2023-05-07T14:26:43;27.90;37.90
29431;DHT22;16404;49.902;10.074;2023-05-07T14:29:29;27.80;37.60
29431;DHT22;16404;49.902;10.074;2023-05-07T14:32:14;27.80;38.00
29431;DHT22;16404;49.902;10.074;2023-05-07T14:34:58;27.70;37.80
29431;DHT22;16404;49.902;10.074;2023-05-07T14:37:43;27.70;37.70
29431;DHT22;16404;49.902;10.074;2023-05-07T14:40:28;27.60;37.50
29431;DHT22;16404;49.902;10.074;2023-05-07T14:43:12;27.60;37.70
29431;DHT22;16404;49.902;10.074;2023-05-07T14:45:57;27.60;37.50
29431;DHT22;16404;49.902;10.074;2023-05-07T14:48:43;27.60;37.20
29431;DHT22;16404;49.902;10.074;2023-05-07T14:51:27;27.60;37.30
29431;DHT22;16404;49.902;10.074;2023-05-07T14:54:13;27.50;37.20
29431;DHT22;16404;49.902;10.074;2023-05-07T14:56:58;27.50;37.10
29431;DHT22;16404;49.902;10.074;2023-05-07T14:59:42;27.50;37.30
29431;DHT22;16404;49.902;10.074;2023-05-07T15:02:27;27.50;37.30
29431;DHT22;16404;49.902;10.074;2023-05-07T15:05:12;27.50;37.20
29431;DHT22;16404;49.902;10.074;2023-05-07T15:07:57;27.50;36.90
29431;DHT22;16404;49.902;10.074;2023-05-07T15:10:42;27.50;36.90
29431;DHT22;16404;49.902;10.074;2023-05-07T15:13:26;27.50;37.20
29431;DHT22;16404;49.902;10.074;2023-05-07T15:16:11;27.50;37.30
29431;DHT22;16404;49.902;10.074;2023-05-07T15:18:55;27.50;37.40
29431;DHT22;16404;49.902;10.074;2023-05-07T15:21:40;27.50;37.60
29431;DHT22;16404;49.902;10.074;2023-05-07T15:24:25;27.40;37.30
29431;DHT22;16404;49.902;10.074;2023-05-07T15:27:10;27.40;37.20
29431;DHT22;16404;49.902;10.074;2023-05-07T15:29:54;27.40;37.20
29431;DHT22;16404;49.902;10.074;2023-05-07T15:32:39;27.40;37.20
29431;DHT22;16404;49.902;10.074;2023-05-07T15:35:24;27.40;37.30
29431;DHT22;16404;49.902;10.074;2023-05-07T15:38:09;27.40;37.30
29431;DHT22;16404;49.902;10.074;2023-05-07T15:40:53;27.40;37.30
29431;DHT22;16404;49.902;10.074;2023-05-07T15:43:43;27.30;37.10
29431;DHT22;16404;49.902;10.074;2023-05-07T15:46:27;27.30;37.30
29431;DHT22;16404;49.902;10.074;2023-05-07T15:49:12;27.20;37.10
29431;DHT22;16404;49.902;10.074;2023-05-07T15:51:57;27.20;37.50
29431;DHT22;16404;49.902;10.074;2023-05-07T15:54:41;27.10;37.70
29431;DHT22;16404;49.902;10.074;2023-05-07T15:57:26;27.10;37.70
29431;DHT22;16404;49.902;10.074;2023-05-07T16:00:11;27.10;37.80
29431;DHT22;16404;49.902;10.074;2023-05-07T16:02:59;27.10;37.80
29431;DHT22;16404;49.902;10.074;2023-05-07T16:05:44;27.10;37.70
29431;DHT22;16404;49.902;10.074;2023-05-07T16:08:29;27.00;37.50
29431;DHT22;16404;49.902;10.074;2023-05-07T16:11:13;27.00;37.50
29431;DHT22;16404;49.902;10.074;2023-05-07T16:13:58;27.00;37.60
29431;DHT22;16404;49.902;10.074;2023-05-07T16:16:44;26.90;37.80
29431;DHT22;16404;49.902;10.074;2023-05-07T16:19:28;26.90;37.90
29431;DHT22;16404;49.902;10.074;2023-05-07T16:22:13;26.90;37.90
29431;DHT22;16404;49.902;10.074;2023-05-07T16:24:57;26.90;38.10
29431;DHT22;16404;49.902;10.074;2023-05-07T16:27:42;26.80;38.00
29431;DHT22;16404;49.902;10.074;2023-05-07T16:30:27;26.70;38.10
29431;DHT22;16404;49.902;10.074;2023-05-07T16:33:11;26.70;38.50
29431;DHT22;16404;49.902;10.074;2023-05-07T16:35:56;26.70;38.50
29431;DHT22;16404;49.902;10.074;2023-05-07T16:38:40;26.60;38.40
29431;DHT22;16404;49.902;10.074;2023-05-07T16:41:25;26.50;38.30
29431;DHT22;16404;49.902;10.074;2023-05-07T16:44:09;26.50;38.50
29431;DHT22;16404;49.902;10.074;2023-05-07T16:46:54;26.40;38.60
29431;DHT22;16404;49.902;10.074;2023-05-07T16:49:39;26.40;38.70
29431;DHT22;16404;49.902;10.074;2023-05-07T16:52:23;26.30;38.80
29431;DHT22;16404;49.902;10.074;2023-05-07T16:55:08;26.30;38.90
29431;DHT22;16404;49.902;10.074;2023-05-07T16:57:52;26.30;38.90
29431;DHT22;16404;49.902;10.074;2023-05-07T17:00:38;26.20;39.00
29431;DHT22;16404;49.902;10.074;2023-05-07T17:03:22;26.10;39.10
29431;DHT22;16404;49.902;10.074;2023-05-07T17:06:07;26.00;39.20
29431;DHT22;16404;49.902;10.074;2023-05-07T17:08:57;25.90;39.30
29431;DHT22;16404;49.902;10.074;2023-05-07T17:11:41;25.80;39.30
29431;DHT22;16404;49.902;10.074;2023-05-07T17:14:26;25.70;39.20
29431;DHT22;16404;49.902;10.074;2023-05-07T17:17:10;25.60;39.40
29431;DHT22;16404;49.902;10.074;2023-05-07T17:19:55;25.40;39.60
29431;DHT22;16404;49.902;10.074;2023-05-07T17:22:40;25.30;39.80
29431;DHT22;16404;49.902;10.074;2023-05-07T17:25:24;25.20;40.20